Flight Track Log - Related Links

Times and Time Zones

All times are in EDT time to prevent confusion due to time zone crossing. See the ASH3751 flight status page for this flight to view local times or setup timezone preferences in your user account.

Time Position Orientation Groundspeed Altitude Reporting Facility
EDT Latitude Longitude Course Direction KTS MPH feet Rate Location/Type
Fri 10:27:05 PM 42.0167 -87.8667 86° East 171 197 2,100  Level Chicago TRACON
Fri 10:27:59 PM 42.0500 -87.8000 56° Northeast 236 272 3,700 2,136 Climbing Chicago TRACON
Fri 10:29:03 PM 42.0942 -87.7231 52° Northeast 270 311 6,300 2,544 Climbing Chicago Center
Fri 10:30:00 PM 42.1842 -87.2975 66° East  Level FlightAware Approximate
Fri 10:30:04 PM 42.1339 -87.6294 60° Northeast 286 329 9,000  Level Chicago Center
Fri 10:31:00 PM 42.2361 -87.1416 66° East  Level FlightAware Approximate
Fri 10:31:05 PM 42.1428 -87.5158 84° East 307 353 11,500  Level Chicago Center
Fri 10:32:00 PM 42.2677 -86.9794 86° East  Level FlightAware Approximate
Fri 10:32:06 PM 42.1767 -87.4078 67° East 312 359 13,800  Level Chicago Center
Fri 10:33:08 PM 42.2100 -87.2975 68° East 318 366 16,200 2,146 Climbing Chicago Center
Fri 10:34:09 PM 42.2444 -87.1831 68° East 328 377 18,200 2,115 Climbing Chicago Center
Fri 10:35:10 PM 42.2817 -87.0400 71° East 338 389 20,500 1,721 Climbing Chicago Center
Fri 10:36:11 PM 42.2853 -86.9017 88° East 362 417 21,700 1,073 Climbing Chicago Center
Fri 10:37:13 PM 42.2917 -86.7547 87° East 388 447 22,700 927 Climbing Chicago Center
Fri 10:38:14 PM 42.2958 -86.6183 88° East 411 473 23,600 1,033 Climbing Chicago Center
Fri 10:39:15 PM 42.3036 -86.4328 87° East 431 496 24,800 1,073 Climbing Chicago Center
Fri 10:40:17 PM 42.3094 -86.2661 87° East 444 511 25,800 976 Climbing Chicago Center
Fri 10:41:18 PM 42.3158 -86.0953 87° East 457 526 26,800 984 Climbing Chicago Center
Fri 10:42:19 PM 42.3125 -85.9200 91° East 469 540 27,800 1,082 Climbing Chicago Center
Fri 10:43:20 PM 42.3106 -85.7450 91° East 472 543 29,000 1,073 Climbing Chicago Center
Fri 10:44:22 PM 42.3083 -85.5683 91° East 473 544 30,000 1,122 Climbing Chicago Center
Fri 10:45:23 PM 42.3056 -85.3567 91° East 473 544 31,300 1,033 Climbing Chicago Center
Fri 10:46:24 PM 42.3031 -85.1814 91° East 471 542 32,100 836 Climbing Chicago Center
Fri 10:47:25 PM 42.2994 -85.0058 92° East 472 543 33,000 976 Climbing Chicago Center
Fri 10:48:27 PM 42.2961 -84.8281 91° East 474 545 34,100 976 Climbing Chicago Center
Fri 10:49:28 PM 42.3014 -84.6547 88° East 463 533 35,000 836 Climbing Chicago Center
Fri 10:50:29 PM 42.3158 -84.4861 83° East 454 522 35,800 667 Climbing Chicago Center
Fri 10:51:07 PM 42.3247 -84.3719 84° East 453 521 36,100 551 Climbing Cleveland Center
Fri 10:52:07 PM 42.3386 -84.1986 84° East 458 527 36,700 450 Climbing Cleveland Center
Fri 10:53:07 PM 42.3525 -84.0253 84° East 458 527 37,000 150 Climbing Cleveland Center
Fri 10:54:07 PM 42.3683 -83.8322 84° East 469 540 37,000  Level Cleveland Center
Fri 10:55:07 PM 42.3861 -83.6447 83° East 476 548 37,000  Level Cleveland Center
Fri 10:56:07 PM 42.3994 -83.4511 85° East 508 585 37,000  Level Cleveland Center
Fri 10:57:07 PM 42.4119 -83.2831 84° East 508 585 37,000  Level Cleveland Center
Fri 10:58:07 PM 42.4292 -83.0728 84° East 508 585 37,000  Level Cleveland Center
Fri 10:59:07 PM 42.4433 -82.8875 84° East 508 585 37,000  Level Cleveland Center
Fri 11:00:07 PM 42.4553 -82.7022 85° East 497 572 37,000  Level Cleveland Center
Fri 11:01:07 PM 42.4689 -82.5169 84° East 497 572 37,000  Level Cleveland Center
Fri 11:02:07 PM 42.4822 -82.3344 84° East 497 572 37,000  Level Cleveland Center
Fri 11:03:07 PM 42.4953 -82.1544 84° East 492 566 37,000  Level Cleveland Center
Fri 11:04:07 PM 42.5061 -81.9744 85° East 487 560 37,000  Level Cleveland Center
Fri 11:05:07 PM 42.5164 -81.7917 86° East 476 548 37,000  Level Cleveland Center
Fri 11:06:07 PM 42.5306 -81.6144 84° East 483 556 37,000  Level Cleveland Center
Fri 11:07:07 PM 42.5403 -81.4342 86° East 478 550 37,000  Level Cleveland Center
Fri 11:08:07 PM 42.5542 -81.2539 84° East 478 550 37,000  Level Cleveland Center
Fri 11:09:07 PM 42.5633 -81.0681 86° East 478 550 37,000  Level Cleveland Center
Fri 11:10:07 PM 42.5722 -80.9075 86° East 484 557 37,000  Level Cleveland Center
Fri 11:11:07 PM 42.5811 -80.7242 86° East 475 547 37,000  Level Cleveland Center
Fri 11:12:07 PM 42.5914 -80.5408 86° East 480 552 37,000  Level Cleveland Center
Fri 11:13:07 PM 42.6017 -80.3575 86° East 480 552 37,000  Level Cleveland Center
Fri 11:14:07 PM 42.6117 -80.1769 86° East 480 552 37,000  Level Cleveland Center
Fri 11:15:07 PM 42.6211 -79.9794 86° East 480 552 37,000  Level Cleveland Center
Fri 11:16:07 PM 42.6286 -79.8183 86° East 480 552 37,000  Level Cleveland Center
Fri 11:17:07 PM 42.6378 -79.6378 86° East 480 552 37,000  Level Cleveland Center
Fri 11:18:07 PM 42.6464 -79.4569 86° East 480 552 37,000  Level Cleveland Center
Fri 11:19:07 PM 42.6531 -79.2761 87° East 480 552 37,000  Level Cleveland Center
Fri 11:20:07 PM 42.6611 -79.0981 86° East 480 552 37,000  Level Cleveland Center
Fri 11:21:07 PM 42.6669 -78.9144 87° East 480 552 37,000  Level Cleveland Center
Fri 11:22:07 PM 42.6747 -78.7364 87° East 480 552 37,000  Level Cleveland Center
Fri 11:23:07 PM 42.6822 -78.5553 87° East 480 552 37,000  Level Cleveland Center
Fri 11:24:07 PM 42.6872 -78.3772 88° East 480 552 37,000  Level Cleveland Center
Fri 11:25:07 PM 42.6939 -78.1933 87° East 480 552 37,000  Level Cleveland Center
Fri 11:26:07 PM 42.6983 -78.0150 88° East 480 552 37,000  Level Cleveland Center
Fri 11:27:07 PM 42.7064 -77.8169 87° East 475 547 37,000 -300 Level Cleveland Center
Fri 11:28:07 PM 42.7067 -77.6558 90° East 475 547 36,400 -1,100 Descending Cleveland Center
Fri 11:29:07 PM 42.7136 -77.4492 87° East 487 560 34,800 -1,466 Descending Cleveland Center
Fri 11:31:03 PM 42.7208 -77.1211 88° East 484 557 32,100 -1,432 Descending Boston Center
Fri 11:32:03 PM 42.7239 -76.9403 89° East 479 551 30,600 -1,500 Descending Boston Center
Fri 11:33:03 PM 42.7292 -76.7539 88° East 479 551 29,100 -800 Descending Boston Center
Fri 11:34:03 PM 42.7339 -76.5706 88° East 479 551 29,000 -50 Descending Boston Center
Fri 11:35:03 PM 42.7361 -76.3897 89° East 479 551 29,000 -650 Level Boston Center
Fri 11:36:03 PM 42.7389 -76.1889 89° East 474 545 27,700 -1,500 Descending Boston Center
Fri 11:37:03 PM 42.7425 -76.0083 88° East 474 545 26,000 -1,700 Descending Boston Center
Fri 11:38:03 PM 42.7439 -75.8272 89° East 474 545 24,300 -1,850 Descending Boston Center
Fri 11:39:03 PM 42.7489 -75.6522 88° East 474 545 22,300 -1,900 Descending Boston Center
Fri 11:40:03 PM 42.7472 -75.4825 91° East 462 532 20,500 -1,800 Descending Boston Center
Fri 11:41:03 PM 42.7472 -75.3242 90° East 445 512 18,700 -1,800 Descending Boston Center
Fri 11:42:03 PM 42.7511 -75.1658 88° East 424 488 16,900 -1,800 Descending Boston Center
Fri 11:43:03 PM 42.7508 -75.0075 90° East 424 488 15,100 -1,930 Descending Boston Center
Fri 11:43:58 PM 42.7519 -74.8606 89° East 406 467 13,200 -1,714 Descending Boston Center
Fri 11:44:55 PM 42.7525 -74.7361 90° East 392 451 11,900 -1,211 Descending Boston Center
Fri 11:45:47 PM 42.7508 -74.6031 91° East 379 436 11,000 -706 Descending Boston Center
Fri 11:46:03 PM 42.7517 -74.5636 88° East 386 444 11,100 -197 Climbing Boston Center
Fri 11:46:48 PM 42.7428 -74.4700 97° East 351 404 10,800 -500 Descending Boston Center
Fri 11:47:03 PM 42.7350 -74.4358 107° East 354 407 10,600 -1,180 Descending Boston Center
Fri 11:47:49 PM 42.7197 -74.3589 105° East 293 337 9,600 -1,472 Descending Boston Center
Fri 11:48:49 PM 42.6944 -74.2422 106° East 291 335 8,000 -1,537 Descending Boston Center
Fri 11:49:50 PM 42.6711 -74.1372 107° East 292 336 6,500 -1,488 Descending Boston Center
Fri 11:50:50 PM 42.6475 -74.0406 108° East 270 311 5,000 -1,289 Descending Boston Center
Fri 11:51:51 PM 42.6239 -73.9469 109° East 256 295 3,900 -1,082 Descending Boston Center

Login

Don't have an account? Register now (free) for customized features, flight alerts, and more!